sensor_id;sensor_type;location;lat;lon;timestamp;pressure;altitude;pressure_sealevel;temperature;humidity
29535;BME280;72082;52.650;8.116;2024-03-22T00:01:58;101671.75;;;10.10;100.00
29535;BME280;72082;52.650;8.116;2024-03-22T00:04:25;101676.06;;;10.11;100.00
29535;BME280;72082;52.650;8.116;2024-03-22T00:06:51;101659.84;;;10.12;100.00
29535;BME280;72082;52.650;8.116;2024-03-22T00:09:16;101659.84;;;10.12;100.00
29535;BME280;72082;52.650;8.116;2024-03-22T00:11:42;101646.25;;;10.14;100.00
29535;BME280;72082;52.650;8.116;2024-03-22T00:14:09;101647.09;;;10.13;100.00
29535;BME280;72082;52.650;8.116;2024-03-22T00:16:34;101653.94;;;10.14;100.00
29535;BME280;72082;52.650;8.116;2024-03-22T00:19:00;101651.38;;;10.14;100.00
29535;BME280;72082;52.650;8.116;2024-03-22T00:21:25;101651.38;;;10.14;100.00
29535;BME280;72082;52.650;8.116;2024-03-22T00:23:51;101643.72;;;10.16;100.00
29535;BME280;72082;52.650;8.116;2024-03-22T00:26:16;101638.59;;;10.16;100.00
29535;BME280;72082;52.650;8.116;2024-03-22T00:28:41;101644.59;;;10.16;100.00
29535;BME280;72082;52.650;8.116;2024-03-22T00:31:08;101640.28;;;10.15;100.00
29535;BME280;72082;52.650;8.116;2024-03-22T00:33:33;101642.84;;;10.14;100.00
29535;BME280;72082;52.650;8.116;2024-03-22T00:35:59;101649.66;;;10.13;100.00
29535;BME280;72082;52.650;8.116;2024-03-22T00:38:24;101631.66;;;10.12;100.00
29535;BME280;72082;52.650;8.116;2024-03-22T00:40:49;101632.56;;;10.12;100.00
29535;BME280;72082;52.650;8.116;2024-03-22T00:43:14;101631.75;;;10.15;100.00
29535;BME280;72082;52.650;8.116;2024-03-22T00:45:40;101624.91;;;10.14;100.00
29535;BME280;72082;52.650;8.116;2024-03-22T00:48:05;101631.75;;;10.15;100.00
29535;BME280;72082;52.650;8.116;2024-03-22T00:50:30;101626.63;;;10.15;100.00
29535;BME280;72082;52.650;8.116;2024-03-22T00:52:56;101621.50;;;10.15;100.00
29535;BME280;72082;52.650;8.116;2024-03-22T00:55:22;101619.81;;;10.14;100.00
29535;BME280;72082;52.650;8.116;2024-03-22T00:57:47;101613.84;;;10.16;100.00
29535;BME280;72082;52.650;8.116;2024-03-22T01:00:13;101606.16;;;10.16;100.00
29535;BME280;72082;52.650;8.116;2024-03-22T01:02:38;101606.16;;;10.18;100.00
29535;BME280;72082;52.650;8.116;2024-03-22T01:05:03;101604.47;;;10.20;100.00
29535;BME280;72082;52.650;8.116;2024-03-22T01:07:29;101586.59;;;10.21;100.00
29535;BME280;72082;52.650;8.116;2024-03-22T01:09:54;101586.59;;;10.23;100.00
29535;BME280;72082;52.650;8.116;2024-03-22T01:12:19;101588.28;;;10.22;100.00
29535;BME280;72082;52.650;8.116;2024-03-22T01:14:45;101590.84;;;10.21;100.00
29535;BME280;72082;52.650;8.116;2024-03-22T01:17:10;101594.25;;;10.20;100.00
29535;BME280;72082;52.650;8.116;2024-03-22T01:19:35;101596.78;;;10.18;100.00
29535;BME280;72082;52.650;8.116;2024-03-22T01:22:00;101593.41;;;10.19;100.00
29535;BME280;72082;52.650;8.116;2024-03-22T01:24:26;101584.00;;;10.20;100.00
29535;BME280;72082;52.650;8.116;2024-03-22T01:26:51;101580.59;;;10.21;100.00
29535;BME280;72082;52.650;8.116;2024-03-22T01:29:16;101577.22;;;10.23;100.00
29535;BME280;72082;52.650;8.116;2024-03-22T01:31:41;101561.84;;;10.25;100.00
29535;BME280;72082;52.650;8.116;2024-03-22T01:34:07;101552.50;;;10.27;100.00
29535;BME280;72082;52.650;8.116;2024-03-22T01:36:32;101558.47;;;10.27;100.00
29535;BME280;72082;52.650;8.116;2024-03-22T01:38:57;101549.09;;;10.28;100.00
29535;BME280;72082;52.650;8.116;2024-03-22T01:41:22;101541.44;;;10.29;100.00
29535;BME280;72082;52.650;8.116;2024-03-22T01:43:48;101542.28;;;10.30;100.00
29535;BME280;72082;52.650;8.116;2024-03-22T01:46:13;101547.44;;;10.33;100.00
29535;BME280;72082;52.650;8.116;2024-03-22T01:48:39;101536.34;;;10.34;100.00
29535;BME280;72082;52.650;8.116;2024-03-22T01:51:05;101535.50;;;10.33;100.00
29535;BME280;72082;52.650;8.116;2024-03-22T01:53:30;101526.97;;;10.34;100.00
29535;BME280;72082;52.650;8.116;2024-03-22T01:55:56;101516.72;;;10.36;100.00
29535;BME280;72082;52.650;8.116;2024-03-22T01:58:21;101515.91;;;10.37;100.00
29535;BME280;72082;52.650;8.116;2024-03-22T02:00:46;101505.69;;;10.40;100.00
29535;BME280;72082;52.650;8.116;2024-03-22T02:03:12;101499.69;;;10.41;100.00
29535;BME280;72082;52.650;8.116;2024-03-22T02:05:37;101504.00;;;10.42;100.00
29535;BME280;72082;52.650;8.116;2024-03-22T02:08:02;101498.00;;;10.43;100.00
29535;BME280;72082;52.650;8.116;2024-03-22T02:10:28;101492.03;;;10.44;100.00
29535;BME280;72082;52.650;8.116;2024-03-22T02:12:53;101492.03;;;10.44;100.00
29535;BME280;72082;52.650;8.116;2024-03-22T02:15:18;101492.03;;;10.44;100.00
29535;BME280;72082;52.650;8.116;2024-03-22T02:17:44;101485.19;;;10.43;100.00
29535;BME280;72082;52.650;8.116;2024-03-22T02:20:09;101477.50;;;10.41;100.00
29535;BME280;72082;52.650;8.116;2024-03-22T02:22:34;101484.31;;;10.39;100.00
29535;BME280;72082;52.650;8.116;2024-03-22T02:25:00;101476.59;;;10.38;100.00
29535;BME280;72082;52.650;8.116;2024-03-22T02:27:25;101480.91;;;10.39;100.00
29535;BME280;72082;52.650;8.116;2024-03-22T02:29:50;101478.34;;;10.39;100.00
29535;BME280;72082;52.650;8.116;2024-03-22T02:32:16;101479.19;;;10.39;100.00
29535;BME280;72082;52.650;8.116;2024-03-22T02:34:41;101473.25;;;10.42;100.00
29535;BME280;72082;52.650;8.116;2024-03-22T02:37:06;101465.56;;;10.43;100.00
29535;BME280;72082;52.650;8.116;2024-03-22T02:39:31;101466.41;;;10.44;100.00
29535;BME280;72082;52.650;8.116;2024-03-22T02:41:57;101459.59;;;10.46;100.00
29535;BME280;72082;52.650;8.116;2024-03-22T02:44:22;101452.78;;;10.45;100.00
29535;BME280;72082;52.650;8.116;2024-03-22T02:46:47;101441.66;;;10.46;100.00
29535;BME280;72082;52.650;8.116;2024-03-22T02:49:13;101447.69;;;10.48;100.00
29535;BME280;72082;52.650;8.116;2024-03-22T02:51:38;101445.13;;;10.49;100.00
29535;BME280;72082;52.650;8.116;2024-03-22T02:54:04;101432.31;;;10.51;100.00
29535;BME280;72082;52.650;8.116;2024-03-22T02:56:29;101436.59;;;10.53;100.00
29535;BME280;72082;52.650;8.116;2024-03-22T02:58:54;101428.94;;;10.55;100.00
29535;BME280;72082;52.650;8.116;2024-03-22T03:01:19;101425.50;;;10.56;100.00
29535;BME280;72082;52.650;8.116;2024-03-22T03:03:45;101420.41;;;10.58;100.00
29535;BME280;72082;52.650;8.116;2024-03-22T03:06:10;101413.59;;;10.58;100.00
29535;BME280;72082;52.650;8.116;2024-03-22T03:08:35;101410.16;;;10.58;100.00
29535;BME280;72082;52.650;8.116;2024-03-22T03:11:00;101392.22;;;10.58;100.00
29535;BME280;72082;52.650;8.116;2024-03-22T03:13:26;101408.47;;;10.60;100.00
29535;BME280;72082;52.650;8.116;2024-03-22T03:15:51;101397.38;;;10.61;100.00
29535;BME280;72082;52.650;8.116;2024-03-22T03:18:16;101397.38;;;10.61;100.00
29535;BME280;72082;52.650;8.116;2024-03-22T03:20:42;101394.81;;;10.61;100.00
29535;BME280;72082;52.650;8.116;2024-03-22T03:23:07;101386.25;;;10.62;100.00
29535;BME280;72082;52.650;8.116;2024-03-22T03:25:35;101377.72;;;10.61;100.00
29535;BME280;72082;52.650;8.116;2024-03-22T03:28:00;101373.44;;;10.62;100.00
29535;BME280;72082;52.650;8.116;2024-03-22T03:30:25;101374.31;;;10.62;100.00
29535;BME280;72082;52.650;8.116;2024-03-22T03:32:50;101373.47;;;10.63;100.00
29535;BME280;72082;52.650;8.116;2024-03-22T03:35:16;101369.19;;;10.62;100.00
29535;BME280;72082;52.650;8.116;2024-03-22T03:37:41;101367.50;;;10.63;100.00
29535;BME280;72082;52.650;8.116;2024-03-22T03:40:07;101367.47;;;10.64;100.00
29535;BME280;72082;52.650;8.116;2024-03-22T03:42:32;101356.41;;;10.64;100.00
29535;BME280;72082;52.650;8.116;2024-03-22T03:44:58;101363.22;;;10.65;100.00
29535;BME280;72082;52.650;8.116;2024-03-22T03:47:24;101352.97;;;10.65;100.00
29535;BME280;72082;52.650;8.116;2024-03-22T03:49:49;101346.97;;;10.64;100.00
29535;BME280;72082;52.650;8.116;2024-03-22T03:52:14;101345.28;;;10.63;100.00
29535;BME280;72082;52.650;8.116;2024-03-22T03:54:39;101341.84;;;10.64;100.00
29535;BME280;72082;52.650;8.116;2024-03-22T03:57:05;101335.03;;;10.65;100.00
29535;BME280;72082;52.650;8.116;2024-03-22T03:59:30;101333.34;;;10.65;100.00
29535;BME280;72082;52.650;8.116;2024-03-22T04:01:56;101328.19;;;10.67;100.00
29535;BME280;72082;52.650;8.116;2024-03-22T04:04:21;101321.41;;;10.69;100.00
29535;BME280;72082;52.650;8.116;2024-03-22T04:06:46;101318.84;;;10.70;100.00
29535;BME280;72082;52.650;8.116;2024-03-22T04:09:11;101318.84;;;10.70;100.00
29535;BME280;72082;52.650;8.116;2024-03-22T04:11:37;101317.13;;;10.71;100.00
29535;BME280;72082;52.650;8.116;2024-03-22T04:14:03;101318.00;;;10.71;100.00
29535;BME280;72082;52.650;8.116;2024-03-22T04:16:28;101317.13;;;10.71;100.00
29535;BME280;72082;52.650;8.116;2024-03-22T04:18:53;101315.41;;;10.70;100.00
29535;BME280;72082;52.650;8.116;2024-03-22T04:21:18;101307.69;;;10.67;100.00
29535;BME280;72082;52.650;8.116;2024-03-22T04:23:44;101306.88;;;10.68;100.00
29535;BME280;72082;52.650;8.116;2024-03-22T04:26:09;101301.72;;;10.69;100.00
29535;BME280;72082;52.650;8.116;2024-03-22T04:28:34;101298.34;;;10.70;100.00
29535;BME280;72082;52.650;8.116;2024-03-22T04:31:04;101292.38;;;10.71;100.00
29535;BME280;72082;52.650;8.116;2024-03-22T04:33:30;101294.06;;;10.72;100.00
29535;BME280;72082;52.650;8.116;2024-03-22T04:35:56;101288.09;;;10.73;100.00
29535;BME280;72082;52.650;8.116;2024-03-22T04:38:23;101286.41;;;10.75;100.00
29535;BME280;72082;52.650;8.116;2024-03-22T04:40:48;101296.63;;;10.77;100.00
29535;BME280;72082;52.650;8.116;2024-03-22T04:43:14;101295.81;;;10.78;100.00
29535;BME280;72082;52.650;8.116;2024-03-22T04:45:42;101299.22;;;10.80;100.00
29535;BME280;72082;52.650;8.116;2024-03-22T04:48:07;101296.69;;;10.81;100.00
29535;BME280;72082;52.650;8.116;2024-03-22T04:50:32;101299.25;;;10.83;100.00
29535;BME280;72082;52.650;8.116;2024-03-22T04:52:58;101289.84;;;10.85;100.00
29535;BME280;72082;52.650;8.116;2024-03-22T04:55:23;101279.63;;;10.86;100.00
29535;BME280;72082;52.650;8.116;2024-03-22T04:57:48;101276.19;;;10.87;100.00
29535;BME280;72082;52.650;8.116;2024-03-22T05:00:14;101273.63;;;10.87;100.00
29535;BME280;72082;52.650;8.116;2024-03-22T05:02:40;101278.78;;;10.89;100.00
29535;BME280;72082;52.650;8.116;2024-03-22T05:05:05;101265.09;;;10.90;100.00
29535;BME280;72082;52.650;8.116;2024-03-22T05:07:30;101273.63;;;10.90;100.00
29535;BME280;72082;52.650;8.116;2024-03-22T05:09:56;101271.09;;;10.92;100.00
29535;BME280;72082;52.650;8.116;2024-03-22T05:12:21;101272.78;;;10.93;100.00
29535;BME280;72082;52.650;8.116;2024-03-22T05:14:46;101267.66;;;10.93;100.00
29535;BME280;72082;52.650;8.116;2024-03-22T05:17:11;101262.56;;;10.94;100.00
29535;BME280;72082;52.650;8.116;2024-03-22T05:19:37;101254.88;;;10.97;100.00
29535;BME280;72082;52.650;8.116;2024-03-22T05:22:02;101254.88;;;10.99;100.00
29535;BME280;72082;52.650;8.116;2024-03-22T05:24:27;101257.44;;;10.99;100.00
29535;BME280;72082;52.650;8.116;2024-03-22T05:26:53;101258.31;;;10.99;100.00
29535;BME280;72082;52.650;8.116;2024-03-22T05:29:18;101257.44;;;11.00;100.00
29535;BME280;72082;52.650;8.116;2024-03-22T05:31:48;101265.13;;;11.00;100.00
29535;BME280;72082;52.650;8.116;2024-03-22T05:34:14;101257.44;;;11.02;100.00
29535;BME280;72082;52.650;8.116;2024-03-22T05:36:40;101255.75;;;11.04;100.00
29535;BME280;72082;52.650;8.116;2024-03-22T05:39:05;101272.00;;;11.04;100.00
29535;BME280;72082;52.650;8.116;2024-03-22T05:41:30;101269.41;;;11.06;100.00
29535;BME280;72082;52.650;8.116;2024-03-22T05:43:55;101264.31;;;11.07;100.00
29535;BME280;72082;52.650;8.116;2024-03-22T05:46:21;101270.28;;;11.09;100.00
29535;BME280;72082;52.650;8.116;2024-03-22T05:48:46;101253.19;;;11.11;100.00
29535;BME280;72082;52.650;8.116;2024-03-22T05:51:11;101250.66;;;11.13;100.00
29535;BME280;72082;52.650;8.116;2024-03-22T05:53:37;101245.53;;;11.13;100.00
29535;BME280;72082;52.650;8.116;2024-03-22T05:56:02;101236.13;;;11.15;100.00
29535;BME280;72082;52.650;8.116;2024-03-22T05:58:27;101248.09;;;11.18;100.00
29535;BME280;72082;52.650;8.116;2024-03-22T06:00:52;101227.59;;;11.21;100.00
29535;BME280;72082;52.650;8.116;2024-03-22T06:03:18;101218.19;;;11.23;100.00
29535;BME280;72082;52.650;8.116;2024-03-22T06:05:44;101222.47;;;11.25;100.00
29535;BME280;72082;52.650;8.116;2024-03-22T06:08:09;101216.47;;;11.28;100.00
29535;BME280;72082;52.650;8.116;2024-03-22T06:10:34;101209.63;;;11.30;100.00
29535;BME280;72082;52.650;8.116;2024-03-22T06:12:59;101216.47;;;11.32;100.00
29535;BME280;72082;52.650;8.116;2024-03-22T06:15:25;101207.94;;;11.33;100.00
29535;BME280;72082;52.650;8.116;2024-03-22T06:17:50;101207.91;;;11.35;100.00
29535;BME280;72082;52.650;8.116;2024-03-22T06:20:15;101207.94;;;11.36;100.00
29535;BME280;72082;52.650;8.116;2024-03-22T06:22:40;101199.38;;;11.37;100.00
29535;BME280;72082;52.650;8.116;2024-03-22T06:25:06;101204.50;;;11.37;100.00
29535;BME280;72082;52.650;8.116;2024-03-22T06:27:31;101202.81;;;11.38;100.00
29535;BME280;72082;52.650;8.116;2024-03-22T06:29:56;101209.66;;;11.40;100.00
29535;BME280;72082;52.650;8.116;2024-03-22T06:32:21;101207.94;;;11.42;100.00
29535;BME280;72082;52.650;8.116;2024-03-22T06:34:47;101214.78;;;11.43;100.00
29535;BME280;72082;52.650;8.116;2024-03-22T06:37:12;101218.19;;;11.45;100.00
29535;BME280;72082;52.650;8.116;2024-03-22T06:39:37;101221.63;;;11.46;100.00
29535;BME280;72082;52.650;8.116;2024-03-22T06:42:03;101229.31;;;11.46;100.00
29535;BME280;72082;52.650;8.116;2024-03-22T06:44:29;101213.94;;;11.46;100.00
29535;BME280;72082;52.650;8.116;2024-03-22T06:46:54;101219.91;;;11.43;100.00
29535;BME280;72082;52.650;8.116;2024-03-22T06:49:20;101215.59;;;11.32;100.00
29535;BME280;72082;52.650;8.116;2024-03-22T06:51:45;101213.03;;;11.21;100.00
29535;BME280;72082;52.650;8.116;2024-03-22T06:54:10;101217.31;;;11.14;100.00
29535;BME280;72082;52.650;8.116;2024-03-22T06:56:35;101217.28;;;11.11;100.00
29535;BME280;72082;52.650;8.116;2024-03-22T06:59:01;101205.34;;;11.10;100.00
29535;BME280;72082;52.650;8.116;2024-03-22T07:01:26;101201.03;;;11.08;100.00
29535;BME280;72082;52.650;8.116;2024-03-22T07:03:51;101225.84;;;11.07;100.00
29535;BME280;72082;52.650;8.116;2024-03-22T07:06:16;101212.13;;;11.05;100.00
29535;BME280;72082;52.650;8.116;2024-03-22T07:08:42;101211.28;;;11.03;100.00
29535;BME280;72082;52.650;8.116;2024-03-22T07:11:07;101206.16;;;10.97;100.00
29535;BME280;72082;52.650;8.116;2024-03-22T07:13:32;101197.59;;;10.91;100.00
29535;BME280;72082;52.650;8.116;2024-03-22T07:15:57;101212.94;;;10.88;100.00
29535;BME280;72082;52.650;8.116;2024-03-22T07:18:23;101210.38;;;10.85;100.00
29535;BME280;72082;52.650;8.116;2024-03-22T07:20:48;101213.81;;;10.84;100.00
29535;BME280;72082;52.650;8.116;2024-03-22T07:23:13;101220.63;;;10.85;100.00
29535;BME280;72082;52.650;8.116;2024-03-22T07:25:38;101212.09;;;10.84;100.00
29535;BME280;72082;52.650;8.116;2024-03-22T07:28:04;101201.00;;;10.84;100.00
29535;BME280;72082;52.650;8.116;2024-03-22T07:30:29;101195.84;;;10.84;100.00
29535;BME280;72082;52.650;8.116;2024-03-22T07:32:55;101200.13;;;10.86;100.00
29535;BME280;72082;52.650;8.116;2024-03-22T07:35:20;101195.88;;;10.88;100.00
29535;BME280;72082;52.650;8.116;2024-03-22T07:37:45;101204.41;;;10.89;100.00
29535;BME280;72082;52.650;8.116;2024-03-22T07:40:10;101199.28;;;10.89;100.00
29535;BME280;72082;52.650;8.116;2024-03-22T07:42:36;101200.16;;;10.89;100.00
29535;BME280;72082;52.650;8.116;2024-03-22T07:45:01;101189.88;;;10.86;100.00
29535;BME280;72082;52.650;8.116;2024-03-22T07:47:26;101190.75;;;10.87;100.00
29535;BME280;72082;52.650;8.116;2024-03-22T07:49:52;101201.84;;;10.86;100.00
29535;BME280;72082;52.650;8.116;2024-03-22T07:52:17;101189.03;;;10.86;100.00
29535;BME280;72082;52.650;8.116;2024-03-22T07:54:42;101192.44;;;10.86;100.00
29535;BME280;72082;52.650;8.116;2024-03-22T07:57:07;101191.59;;;10.89;100.00
29535;BME280;72082;52.650;8.116;2024-03-22T07:59:33;101193.31;;;10.91;100.00
29535;BME280;72082;52.650;8.116;2024-03-22T08:01:58;101182.19;;;10.95;100.00
29535;BME280;72082;52.650;8.116;2024-03-22T08:04:23;101175.38;;;10.99;100.00
29535;BME280;72082;52.650;8.116;2024-03-22T08:06:50;101169.41;;;11.01;100.00
29535;BME280;72082;52.650;8.116;2024-03-22T08:09:15;101183.09;;;10.97;100.00
29535;BME280;72082;52.650;8.116;2024-03-22T08:11:40;101176.22;;;10.92;100.00
29535;BME280;72082;52.650;8.116;2024-03-22T08:14:06;101169.38;;;10.89;100.00
29535;BME280;72082;52.650;8.116;2024-03-22T08:16:31;101179.66;;;10.89;100.00
29535;BME280;72082;52.650;8.116;2024-03-22T08:18:57;101179.63;;;10.92;100.00
29535;BME280;72082;52.650;8.116;2024-03-22T08:21:23;101177.06;;;10.91;100.00
29535;BME280;72082;52.650;8.116;2024-03-22T08:23:49;101167.69;;;10.91;100.00
29535;BME280;72082;52.650;8.116;2024-03-22T08:26:14;101167.69;;;10.97;100.00
29535;BME280;72082;52.650;8.116;2024-03-22T08:31:43;101160.00;;;11.08;100.00
29535;BME280;72082;52.650;8.116;2024-03-22T08:34:08;101154.03;;;11.04;100.00
29535;BME280;72082;52.650;8.116;2024-03-22T08:36:34;101154.00;;;10.98;100.00
29535;BME280;72082;52.650;8.116;2024-03-22T08:38:59;101169.38;;;10.95;100.00
29535;BME280;72082;52.650;8.116;2024-03-22T08:41:24;101171.94;;;10.98;100.00
29535;BME280;72082;52.650;8.116;2024-03-22T08:43:49;101168.56;;;11.02;100.00
29535;BME280;72082;52.650;8.116;2024-03-22T08:46:15;101158.28;;;11.08;100.00
29535;BME280;72082;52.650;8.116;2024-03-22T08:48:40;101154.88;;;11.14;100.00
29535;BME280;72082;52.650;8.116;2024-03-22T08:51:05;101152.34;;;11.23;100.00
29535;BME280;72082;52.650;8.116;2024-03-22T08:53:30;101153.19;;;11.30;100.00
29535;BME280;72082;52.650;8.116;2024-03-22T08:55:56;101143.78;;;11.35;100.00
29535;BME280;72082;52.650;8.116;2024-03-22T08:58:21;101151.47;;;11.38;100.00
29535;BME280;72082;52.650;8.116;2024-03-22T09:00:46;101148.91;;;11.41;100.00
29535;BME280;72082;52.650;8.116;2024-03-22T09:03:11;101153.19;;;11.46;100.00
29535;BME280;72082;52.650;8.116;2024-03-22T09:05:37;101152.34;;;11.52;100.00
29535;BME280;72082;52.650;8.116;2024-03-22T09:08:03;101151.50;;;11.57;100.00
29535;BME280;72082;52.650;8.116;2024-03-22T09:10:28;101148.06;;;11.69;100.00
29535;BME280;72082;52.650;8.116;2024-03-22T09:12:53;101142.94;;;11.80;100.00
29535;BME280;72082;52.650;8.116;2024-03-22T09:15:19;101136.06;;;11.89;100.00
29535;BME280;72082;52.650;8.116;2024-03-22T09:17:44;101138.59;;;12.00;100.00
29535;BME280;72082;52.650;8.116;2024-03-22T09:20:10;101137.75;;;12.07;100.00
29535;BME280;72082;52.650;8.116;2024-03-22T09:22:35;101130.00;;;12.08;100.00
29535;BME280;72082;52.650;8.116;2024-03-22T09:25:01;101140.28;;;12.08;100.00
29535;BME280;72082;52.650;8.116;2024-03-22T09:27:26;101134.28;;;12.14;100.00
29535;BME280;72082;52.650;8.116;2024-03-22T09:29:51;101146.25;;;12.18;100.00
29535;BME280;72082;52.650;8.116;2024-03-22T09:32:16;101134.25;;;12.21;100.00
29535;BME280;72082;52.650;8.116;2024-03-22T09:34:41;101134.28;;;12.17;100.00
29535;BME280;72082;52.650;8.116;2024-03-22T09:37:07;101138.56;;;12.10;100.00
29535;BME280;72082;52.650;8.116;2024-03-22T09:39:32;101142.88;;;12.05;100.00
29535;BME280;72082;52.650;8.116;2024-03-22T09:41:58;101145.44;;;11.99;100.00
29535;BME280;72082;52.650;8.116;2024-03-22T09:44:27;101147.16;;;11.94;100.00
29535;BME280;72082;52.650;8.116;2024-03-22T09:46:52;101147.19;;;11.88;100.00
29535;BME280;72082;52.650;8.116;2024-03-22T09:49:18;101144.63;;;11.84;100.00
29535;BME280;72082;52.650;8.116;2024-03-22T09:51:44;101142.91;;;11.81;100.00
29535;BME280;72082;52.650;8.116;2024-03-22T09:54:10;101138.66;;;11.77;100.00
29535;BME280;72082;52.650;8.116;2024-03-22T09:56:38;101141.22;;;11.77;100.00
29535;BME280;72082;52.650;8.116;2024-03-22T09:59:03;101148.91;;;11.77;100.00
29535;BME280;72082;52.650;8.116;2024-03-22T10:01:29;101136.94;;;11.76;100.00
29535;BME280;72082;52.650;8.116;2024-03-22T10:03:56;101144.66;;;11.74;100.00
29535;BME280;72082;52.650;8.116;2024-03-22T10:06:21;101146.38;;;11.72;100.00
29535;BME280;72082;52.650;8.116;2024-03-22T10:08:46;101140.38;;;11.69;100.00
29535;BME280;72082;52.650;8.116;2024-03-22T10:11:12;101146.34;;;11.65;100.00
29535;BME280;72082;52.650;8.116;2024-03-22T10:13:37;101146.34;;;11.60;100.00
29535;BME280;72082;52.650;8.116;2024-03-22T10:16:03;101142.94;;;11.60;100.00
29535;BME280;72082;52.650;8.116;2024-03-22T10:18:32;101136.06;;;11.59;100.00
29535;BME280;72082;52.650;8.116;2024-03-22T10:21:01;101142.06;;;11.61;100.00
29535;BME280;72082;52.650;8.116;2024-03-22T10:23:28;101152.31;;;11.61;100.00
29535;BME280;72082;52.650;8.116;2024-03-22T10:25:55;101152.34;;;11.59;100.00
29535;BME280;72082;52.650;8.116;2024-03-22T10:28:20;101154.03;;;11.59;100.00
29535;BME280;72082;52.650;8.116;2024-03-22T10:30:47;101149.78;;;11.56;100.00
29535;BME280;72082;52.650;8.116;2024-03-22T10:33:14;101154.91;;;11.55;100.00
29535;BME280;72082;52.650;8.116;2024-03-22T10:35:41;101164.31;;;11.53;100.00
29535;BME280;72082;52.650;8.116;2024-03-22T10:38:07;101155.75;;;11.51;100.00
29535;BME280;72082;52.650;8.116;2024-03-22T10:40:34;101156.63;;;11.47;100.00
29535;BME280;72082;52.650;8.116;2024-03-22T10:42:59;101161.75;;;11.42;100.00
29535;BME280;72082;52.650;8.116;2024-03-22T10:45:25;101152.31;;;11.37;100.00
29535;BME280;72082;52.650;8.116;2024-03-22T10:47:52;101161.75;;;11.35;100.00
29535;BME280;72082;52.650;8.116;2024-03-22T10:50:21;101154.88;;;11.37;100.00
29535;BME280;72082;52.650;8.116;2024-03-22T10:52:52;101151.47;;;11.35;100.00
29535;BME280;72082;52.650;8.116;2024-03-22T10:55:27;101157.47;;;11.25;100.00
29535;BME280;72082;52.650;8.116;2024-03-22T10:57:54;101144.63;;;11.14;100.00
29535;BME280;72082;52.650;8.116;2024-03-22T11:00:27;101138.66;;;11.10;100.00
29535;BME280;72082;52.650;8.116;2024-03-22T11:02:53;101142.06;;;11.12;100.00
29535;BME280;72082;52.650;8.116;2024-03-22T11:05:19;101144.63;;;11.17;100.00
29535;BME280;72082;52.650;8.116;2024-03-22T11:07:44;101130.09;;;11.27;100.00
29535;BME280;72082;52.650;8.116;2024-03-22T11:10:12;101122.41;;;11.40;100.00
29535;BME280;72082;52.650;8.116;2024-03-22T11:12:39;101121.53;;;11.53;100.00
29535;BME280;72082;52.650;8.116;2024-03-22T11:15:05;101119.81;;;11.66;100.00
29535;BME280;72082;52.650;8.116;2024-03-22T11:17:30;101113.81;;;11.76;100.00
29535;BME280;72082;52.650;8.116;2024-03-22T11:19:56;101115.53;;;11.82;100.00
29535;BME280;72082;52.650;8.116;2024-03-22T11:22:21;101115.53;;;11.83;100.00
29535;BME280;72082;52.650;8.116;2024-03-22T11:24:46;101111.25;;;11.82;100.00
29535;BME280;72082;52.650;8.116;2024-03-22T11:27:12;101110.41;;;11.80;100.00
29535;BME280;72082;52.650;8.116;2024-03-22T11:29:37;101105.28;;;11.80;100.00
29535;BME280;72082;52.650;8.116;2024-03-22T11:32:03;101112.97;;;11.77;100.00
29535;BME280;72082;52.650;8.116;2024-03-22T11:34:28;101113.84;;;11.73;100.00
29535;BME280;72082;52.650;8.116;2024-03-22T11:36:54;101112.13;;;11.69;100.00
29535;BME280;72082;52.650;8.116;2024-03-22T11:39:19;101113.81;;;11.67;100.00
29535;BME280;72082;52.650;8.116;2024-03-22T11:41:44;101103.56;;;11.62;100.00
29535;BME280;72082;52.650;8.116;2024-03-22T11:44:10;101113.84;;;11.56;100.00
29535;BME280;72082;52.650;8.116;2024-03-22T11:46:36;101096.72;;;11.48;100.00
29535;BME280;72082;52.650;8.116;2024-03-22T11:49:01;101113.84;;;11.40;100.00
29535;BME280;72082;52.650;8.116;2024-03-22T11:51:27;101105.28;;;11.32;100.00
29535;BME280;72082;52.650;8.116;2024-03-22T11:53:53;101098.44;;;11.22;100.00
29535;BME280;72082;52.650;8.116;2024-03-22T11:56:20;101115.56;;;11.16;100.00
29535;BME280;72082;52.650;8.116;2024-03-22T11:58:46;101113.84;;;11.09;100.00
29535;BME280;72082;52.650;8.116;2024-03-22T12:01:12;101104.44;;;11.02;100.00
29535;BME280;72082;52.650;8.116;2024-03-22T12:03:37;101105.28;;;10.98;100.00
29535;BME280;72082;52.650;8.116;2024-03-22T12:06:03;101097.59;;;10.95;100.00
29535;BME280;72082;52.650;8.116;2024-03-22T12:08:29;101101.00;;;10.93;100.00
29535;BME280;72082;52.650;8.116;2024-03-22T12:10:54;101102.72;;;10.95;100.00
29535;BME280;72082;52.650;8.116;2024-03-22T12:13:19;101099.31;;;10.99;100.00
29535;BME280;72082;52.650;8.116;2024-03-22T12:15:44;101096.75;;;11.02;100.00
29535;BME280;72082;52.650;8.116;2024-03-22T12:18:10;101098.47;;;11.02;100.00
29535;BME280;72082;52.650;8.116;2024-03-22T12:20:35;101097.59;;;11.04;100.00
29535;BME280;72082;52.650;8.116;2024-03-22T12:23:00;101095.88;;;11.08;100.00
29535;BME280;72082;52.650;8.116;2024-03-22T12:25:25;101087.34;;;11.07;100.00
29535;BME280;72082;52.650;8.116;2024-03-22T12:27:51;101084.78;;;11.07;100.00
29535;BME280;72082;52.650;8.116;2024-03-22T12:30:16;101075.38;;;11.02;100.00
29535;BME280;72082;52.650;8.116;2024-03-22T12:32:41;101085.63;;;11.00;100.00
29535;BME280;72082;52.650;8.116;2024-03-22T12:35:07;101071.13;;;10.95;100.00